sensor_id;sensor_type;location;lat;lon;timestamp;pressure;altitude;pressure_sealevel;temperature;humidity
10948;BME280;5526;42.070;24.752;2023-09-19T00:00:15;99386.66;;;17.86;81.19
10948;BME280;5526;42.070;24.752;2023-09-19T00:02:46;99385.84;;;17.86;81.30
10948;BME280;5526;42.070;24.752;2023-09-19T00:05:13;99380.31;;;17.82;81.92
10948;BME280;5526;42.070;24.752;2023-09-19T00:07:41;99376.28;;;17.85;81.92
10948;BME280;5526;42.070;24.752;2023-09-19T00:10:08;99371.53;;;17.82;82.28
10948;BME280;5526;42.070;24.752;2023-09-19T00:12:37;99374.50;;;17.80;82.67
10948;BME280;5526;42.070;24.752;2023-09-19T00:15:06;99379.81;;;17.80;83.04
10948;BME280;5526;42.070;24.752;2023-09-19T00:17:34;99370.06;;;17.76;83.32
10948;BME280;5526;42.070;24.752;2023-09-19T00:20:04;99368.47;;;17.75;83.52
10948;BME280;5526;42.070;24.752;2023-09-19T00:22:33;99356.88;;;17.66;83.89
10948;BME280;5526;42.070;24.752;2023-09-19T00:25:00;99366.16;;;17.68;84.12
10948;BME280;5526;42.070;24.752;2023-09-19T00:27:28;99368.81;;;17.68;83.99
10948;BME280;5526;42.070;24.752;2023-09-19T00:29:55;99373.38;;;17.68;84.16
10948;BME280;5526;42.070;24.752;2023-09-19T00:32:24;99361.44;;;17.65;84.00
10948;BME280;5526;42.070;24.752;2023-09-19T00:34:50;99363.09;;;17.61;84.51
10948;BME280;5526;42.070;24.752;2023-09-19T00:37:17;99362.78;;;17.63;84.43
10948;BME280;5526;42.070;24.752;2023-09-19T00:39:45;99367.63;;;17.61;84.47
10948;BME280;5526;42.070;24.752;2023-09-19T00:42:18;99360.13;;;17.63;83.98
10948;BME280;5526;42.070;24.752;2023-09-19T00:44:47;99355.47;;;17.55;84.56
10948;BME280;5526;42.070;24.752;2023-09-19T00:47:16;99347.06;;;17.48;84.97
10948;BME280;5526;42.070;24.752;2023-09-19T00:49:45;99352.88;;;17.50;84.74
10948;BME280;5526;42.070;24.752;2023-09-19T00:52:16;99356.34;;;17.50;84.55
10948;BME280;5526;42.070;24.752;2023-09-19T00:54:46;99354.25;;;17.47;84.71
10948;BME280;5526;42.070;24.752;2023-09-19T00:57:13;99357.72;;;17.48;84.88
10948;BME280;5526;42.070;24.752;2023-09-19T00:59:43;99356.63;;;17.49;84.83
10948;BME280;5526;42.070;24.752;2023-09-19T01:02:10;99358.50;;;17.48;85.19
10948;BME280;5526;42.070;24.752;2023-09-19T01:04:40;99359.66;;;17.42;85.10
10948;BME280;5526;42.070;24.752;2023-09-19T01:07:08;99353.34;;;17.33;85.82
10948;BME280;5526;42.070;24.752;2023-09-19T01:09:36;99362.94;;;17.34;86.17
10948;BME280;5526;42.070;24.752;2023-09-19T01:12:06;99361.00;;;17.40;85.45
10948;BME280;5526;42.070;24.752;2023-09-19T01:14:38;99367.59;;;17.24;85.98
10948;BME280;5526;42.070;24.752;2023-09-19T01:17:15;99361.34;;;17.15;86.64
10948;BME280;5526;42.070;24.752;2023-09-19T01:23:11;99366.47;;;16.87;87.65
10948;BME280;5526;42.070;24.752;2023-09-19T01:28:52;99358.84;;;16.81;88.25
10948;BME280;5526;42.070;24.752;2023-09-19T01:31:23;99360.66;;;16.85;88.12
10948;BME280;5526;42.070;24.752;2023-09-19T01:33:56;99358.00;;;16.85;89.10
10948;BME280;5526;42.070;24.752;2023-09-19T01:36:27;99354.56;;;16.85;88.61
10948;BME280;5526;42.070;24.752;2023-09-19T01:38:55;99355.56;;;16.89;88.83
10948;BME280;5526;42.070;24.752;2023-09-19T01:41:33;99354.19;;;16.91;88.60
10948;BME280;5526;42.070;24.752;2023-09-19T01:44:06;99358.16;;;16.94;88.15
10948;BME280;5526;42.070;24.752;2023-09-19T01:46:40;99355.50;;;16.94;88.54
10948;BME280;5526;42.070;24.752;2023-09-19T01:49:18;99345.22;;;16.87;89.01
10948;BME280;5526;42.070;24.752;2023-09-19T01:51:55;99346.50;;;16.90;89.40
10948;BME280;5526;42.070;24.752;2023-09-19T01:54:27;99340.91;;;16.91;89.24
10948;BME280;5526;42.070;24.752;2023-09-19T01:57:01;99341.50;;;16.88;89.13
10948;BME280;5526;42.070;24.752;2023-09-19T01:59:36;99345.44;;;16.91;89.09
10948;BME280;5526;42.070;24.752;2023-09-19T02:02:08;99335.75;;;16.81;89.42
10948;BME280;5526;42.070;24.752;2023-09-19T02:04:36;99333.56;;;16.83;89.66
10948;BME280;5526;42.070;24.752;2023-09-19T02:07:03;99337.81;;;16.84;89.70
10948;BME280;5526;42.070;24.752;2023-09-19T02:09:34;99336.47;;;16.87;89.36
10948;BME280;5526;42.070;24.752;2023-09-19T02:12:05;99342.53;;;16.69;90.13
10948;BME280;5526;42.070;24.752;2023-09-19T02:14:32;99344.63;;;16.48;92.30
10948;BME280;5526;42.070;24.752;2023-09-19T02:17:01;99343.13;;;16.37;93.22
10948;BME280;5526;42.070;24.752;2023-09-19T02:19:32;99347.06;;;16.45;92.30
10948;BME280;5526;42.070;24.752;2023-09-19T02:21:59;99341.41;;;16.51;92.16
10948;BME280;5526;42.070;24.752;2023-09-19T02:24:29;99338.19;;;16.54;91.79
10948;BME280;5526;42.070;24.752;2023-09-19T02:26:56;99336.81;;;16.57;91.92
10948;BME280;5526;42.070;24.752;2023-09-19T02:29:25;99339.75;;;16.55;92.04
10948;BME280;5526;42.070;24.752;2023-09-19T02:31:52;99329.34;;;16.59;91.69
10948;BME280;5526;42.070;24.752;2023-09-19T02:34:21;99336.81;;;16.57;92.30
10948;BME280;5526;42.070;24.752;2023-09-19T02:36:50;99340.28;;;16.57;92.07
10948;BME280;5526;42.070;24.752;2023-09-19T02:39:19;99335.75;;;16.58;92.13
10948;BME280;5526;42.070;24.752;2023-09-19T02:41:46;99336.81;;;16.57;92.32
10948;BME280;5526;42.070;24.752;2023-09-19T02:44:13;99336.09;;;16.51;92.50
10948;BME280;5526;42.070;24.752;2023-09-19T02:46:40;99330.84;;;16.46;92.61
10948;BME280;5526;42.070;24.752;2023-09-19T02:49:08;99336.38;;;16.50;92.40
10948;BME280;5526;42.070;24.752;2023-09-19T02:51:35;99331.94;;;16.45;92.12
10948;BME280;5526;42.070;24.752;2023-09-19T02:54:04;99335.00;;;16.52;92.32
10948;BME280;5526;42.070;24.752;2023-09-19T02:56:32;99336.63;;;16.53;92.21
10948;BME280;5526;42.070;24.752;2023-09-19T02:58:59;99328.66;;;16.53;91.87
10948;BME280;5526;42.070;24.752;2023-09-19T03:01:27;99337.09;;;16.55;92.12
10948;BME280;5526;42.070;24.752;2023-09-19T03:03:54;99334.25;;;16.52;92.15
10948;BME280;5526;42.070;24.752;2023-09-19T03:06:22;99329.19;;;16.50;92.20
10948;BME280;5526;42.070;24.752;2023-09-19T03:08:49;99326.53;;;16.50;92.27
10948;BME280;5526;42.070;24.752;2023-09-19T03:11:18;99328.69;;;16.48;92.42
10948;BME280;5526;42.070;24.752;2023-09-19T03:13:51;99325.47;;;16.51;92.04
10948;BME280;5526;42.070;24.752;2023-09-19T03:16:19;99330.28;;;16.49;92.00
10948;BME280;5526;42.070;24.752;2023-09-19T03:18:47;99325.53;;;16.46;91.95
10948;BME280;5526;42.070;24.752;2023-09-19T03:21:15;99327.66;;;16.44;92.42
10948;BME280;5526;42.070;24.752;2023-09-19T03:23:43;99331.63;;;16.47;92.18
10948;BME280;5526;42.070;24.752;2023-09-19T03:26:12;99324.72;;;16.46;92.12
10948;BME280;5526;42.070;24.752;2023-09-19T03:28:41;99324.44;;;16.47;92.40
10948;BME280;5526;42.070;24.752;2023-09-19T03:31:09;99326.09;;;16.43;92.28
10948;BME280;5526;42.070;24.752;2023-09-19T03:33:37;99319.69;;;16.44;92.04
10948;BME280;5526;42.070;24.752;2023-09-19T03:36:04;99323.16;;;16.45;92.10
10948;BME280;5526;42.070;24.752;2023-09-19T03:38:33;99324.72;;;16.46;92.37
10948;BME280;5526;42.070;24.752;2023-09-19T03:41:00;99323.38;;;16.48;91.96
10948;BME280;5526;42.070;24.752;2023-09-19T03:43:28;99319.41;;;16.46;92.07
10948;BME280;5526;42.070;24.752;2023-09-19T03:45:56;99330.84;;;16.46;92.26
10948;BME280;5526;42.070;24.752;2023-09-19T03:48:23;99325.81;;;16.45;92.05
10948;BME280;5526;42.070;24.752;2023-09-19T03:50:51;99327.63;;;16.49;92.03
10948;BME280;5526;42.070;24.752;2023-09-19T03:53:19;99334.44;;;16.55;91.49
10948;BME280;5526;42.070;24.752;2023-09-19T03:55:46;99334.09;;;16.62;91.00
10948;BME280;5526;42.070;24.752;2023-09-19T03:58:13;99333.72;;;16.50;91.54
10948;BME280;5526;42.070;24.752;2023-09-19T04:00:40;99334.38;;;16.37;92.14
10948;BME280;5526;42.070;24.752;2023-09-19T04:03:08;99331.53;;;16.28;92.33
10948;BME280;5526;42.070;24.752;2023-09-19T04:05:44;99337.25;;;16.17;92.78
10948;BME280;5526;42.070;24.752;2023-09-19T04:08:11;99342.28;;;16.18;92.73
10948;BME280;5526;42.070;24.752;2023-09-19T04:10:38;99341.47;;;16.18;93.01
10948;BME280;5526;42.070;24.752;2023-09-19T04:13:05;99341.75;;;16.16;93.67
10948;BME280;5526;42.070;24.752;2023-09-19T04:15:33;99343.09;;;16.14;93.65
10948;BME280;5526;42.070;24.752;2023-09-19T04:18:00;99350.25;;;16.18;94.02
10948;BME280;5526;42.070;24.752;2023-09-19T04:20:29;99346.44;;;16.24;93.90
10948;BME280;5526;42.070;24.752;2023-09-19T04:22:57;99346.72;;;16.23;94.08
10948;BME280;5526;42.070;24.752;2023-09-19T04:25:25;99349.03;;;16.29;94.06
10948;BME280;5526;42.070;24.752;2023-09-19T04:27:53;99339.97;;;16.35;93.58
10948;BME280;5526;42.070;24.752;2023-09-19T04:30:20;99337.81;;;16.37;93.92
10948;BME280;5526;42.070;24.752;2023-09-19T04:32:47;99342.25;;;16.47;94.02
10948;BME280;5526;42.070;24.752;2023-09-19T04:35:16;99341.34;;;16.56;93.02
10948;BME280;5526;42.070;24.752;2023-09-19T04:37:44;99343.59;;;16.68;93.01
10948;BME280;5526;42.070;24.752;2023-09-19T04:40:12;99340.59;;;16.74;92.80
10948;BME280;5526;42.070;24.752;2023-09-19T04:42:43;99332.00;;;16.82;92.56
10948;BME280;5526;42.070;24.752;2023-09-19T04:45:10;99335.31;;;16.93;92.11
10948;BME280;5526;42.070;24.752;2023-09-19T04:47:37;99334.03;;;17.09;91.76
10948;BME280;5526;42.070;24.752;2023-09-19T04:50:07;99329.78;;;17.27;91.42
10948;BME280;5526;42.070;24.752;2023-09-19T04:52:39;99335.75;;;17.37;90.74
10948;BME280;5526;42.070;24.752;2023-09-19T04:55:10;99332.16;;;17.47;90.38
10948;BME280;5526;42.070;24.752;2023-09-19T04:57:43;99310.81;;;17.52;89.25
10948;BME280;5526;42.070;24.752;2023-09-19T05:00:12;99331.03;;;17.85;88.94
10948;BME280;5526;42.070;24.752;2023-09-19T05:02:40;99328.00;;;18.05;87.79
10948;BME280;5526;42.070;24.752;2023-09-19T05:05:09;99329.81;;;18.23;86.76
10948;BME280;5526;42.070;24.752;2023-09-19T05:07:37;99327.50;;;18.35;85.78
10948;BME280;5526;42.070;24.752;2023-09-19T05:10:09;99326.59;;;18.53;84.93
10948;BME280;5526;42.070;24.752;2023-09-19T05:12:37;99326.22;;;19.08;87.41
10948;BME280;5526;42.070;24.752;2023-09-19T05:15:05;99339.19;;;19.72;83.63
10948;BME280;5526;42.070;24.752;2023-09-19T05:17:34;99338.22;;;20.21;82.09
10948;BME280;5526;42.070;24.752;2023-09-19T05:20:01;99344.31;;;21.00;79.63
10948;BME280;5526;42.070;24.752;2023-09-19T15:40:57;98928.69;;;26.08;54.94
10948;BME280;5526;42.070;24.752;2023-09-19T15:43:24;98920.25;;;26.09;55.30
10948;BME280;5526;42.070;24.752;2023-09-19T15:45:52;98918.41;;;26.13;54.96
10948;BME280;5526;42.070;24.752;2023-09-19T15:48:19;98918.19;;;26.22;55.12
10948;BME280;5526;42.070;24.752;2023-09-19T18:48:57;99003.34;;;21.38;63.56
10948;BME280;5526;42.070;24.752;2023-09-19T18:51:24;99008.56;;;21.35;64.05
10948;BME280;5526;42.070;24.752;2023-09-19T18:53:51;99005.25;;;21.38;63.93
10948;BME280;5526;42.070;24.752;2023-09-19T18:56:18;99012.75;;;21.44;63.50
10948;BME280;5526;42.070;24.752;2023-09-19T18:58:49;99018.09;;;21.53;63.01
10948;BME280;5526;42.070;24.752;2023-09-19T19:01:16;99010.81;;;21.53;62.55
10948;BME280;5526;42.070;24.752;2023-09-19T19:03:44;99018.50;;;21.63;62.06
10948;BME280;5526;42.070;24.752;2023-09-19T19:06:14;99009.47;;;21.68;61.49
10948;BME280;5526;42.070;24.752;2023-09-19T19:08:43;99003.34;;;21.67;61.22
10948;BME280;5526;42.070;24.752;2023-09-19T19:11:12;99010.09;;;21.73;60.86
10948;BME280;5526;42.070;24.752;2023-09-19T19:13:42;99007.72;;;21.72;60.51
10948;BME280;5526;42.070;24.752;2023-09-19T19:16:12;99008.84;;;21.71;60.13
10948;BME280;5526;42.070;24.752;2023-09-19T19:18:40;99010.09;;;21.73;59.72
10948;BME280;5526;42.070;24.752;2023-09-19T19:21:07;99016.84;;;21.79;59.09
10948;BME280;5526;42.070;24.752;2023-09-19T19:23:39;99016.03;;;21.79;58.54
10948;BME280;5526;42.070;24.752;2023-09-19T19:26:08;99016.34;;;21.77;58.42
10948;BME280;5526;42.070;24.752;2023-09-19T19:28:35;99017.16;;;21.78;58.18
10948;BME280;5526;42.070;24.752;2023-09-19T19:31:05;99025.66;;;21.80;57.85
10948;BME280;5526;42.070;24.752;2023-09-19T19:33:34;99028.34;;;21.80;57.36
10948;BME280;5526;42.070;24.752;2023-09-19T19:36:04;99020.31;;;21.80;56.88
10948;BME280;5526;42.070;24.752;2023-09-19T19:38:32;99018.28;;;21.77;56.87
10948;BME280;5526;42.070;24.752;2023-09-19T19:41:01;99024.41;;;21.77;56.34
10948;BME280;5526;42.070;24.752;2023-09-19T19:43:30;99016.69;;;21.76;56.42
10948;BME280;5526;42.070;24.752;2023-09-19T19:45:57;99018.59;;;21.75;56.01
10948;BME280;5526;42.070;24.752;2023-09-19T19:48:25;99013.88;;;21.72;55.58
10948;BME280;5526;42.070;24.752;2023-09-19T19:50:53;99022.38;;;21.74;54.99
10948;BME280;5526;42.070;24.752;2023-09-19T19:53:21;99025.06;;;21.74;54.76
10948;BME280;5526;42.070;24.752;2023-09-19T19:55:49;99018.13;;;21.73;54.75
10948;BME280;5526;42.070;24.752;2023-09-19T19:58:18;99028.19;;;21.76;54.49
10948;BME280;5526;42.070;24.752;2023-09-19T20:00:47;99014.00;;;21.76;54.48
10948;BME280;5526;42.070;24.752;2023-09-19T20:03:15;99014.34;;;21.74;54.71
10948;BME280;5526;42.070;24.752;2023-09-19T20:05:42;99023.03;;;21.71;54.68
10948;BME280;5526;42.070;24.752;2023-09-19T20:08:09;99020.66;;;21.70;54.76
10948;BME280;5526;42.070;24.752;2023-09-19T20:10:39;99018.75;;;21.70;54.84
10948;BME280;5526;42.070;24.752;2023-09-19T20:13:06;99015.59;;;21.68;54.44
10948;BME280;5526;42.070;24.752;2023-09-19T20:15:35;99021.28;;;21.67;54.46
10948;BME280;5526;42.070;24.752;2023-09-19T20:18:03;99019.72;;;21.66;54.43
10948;BME280;5526;42.070;24.752;2023-09-19T20:20:33;99026.53;;;21.63;53.97
10948;BME280;5526;42.070;24.752;2023-09-19T20:23:00;99032.19;;;21.62;53.80
10948;BME280;5526;42.070;24.752;2023-09-19T20:25:27;99029.19;;;21.63;53.43
10948;BME280;5526;42.070;24.752;2023-09-19T20:27:55;99034.56;;;21.63;53.31
10948;BME280;5526;42.070;24.752;2023-09-19T20:30:22;99036.91;;;21.65;53.10
10948;BME280;5526;42.070;24.752;2023-09-19T20:32:51;99045.59;;;21.62;56.21
10948;BME280;5526;42.070;24.752;2023-09-19T20:35:20;99044.00;;;21.32;59.67
10948;BME280;5526;42.070;24.752;2023-09-19T20:37:48;99047.38;;;21.20;61.92
10948;BME280;5526;42.070;24.752;2023-09-19T20:40:17;99043.47;;;21.09;62.88
10948;BME280;5526;42.070;24.752;2023-09-19T20:42:46;99051.38;;;20.97;63.41
10948;BME280;5526;42.070;24.752;2023-09-19T20:45:15;99038.63;;;20.94;63.84
10948;BME280;5526;42.070;24.752;2023-09-19T20:47:42;99044.00;;;20.94;63.54
10948;BME280;5526;42.070;24.752;2023-09-19T20:50:11;99043.66;;;21.04;63.04
10948;BME280;5526;42.070;24.752;2023-09-19T20:52:38;99036.88;;;21.07;61.75
10948;BME280;5526;42.070;24.752;2023-09-19T20:55:05;99034.50;;;21.05;60.56
10948;BME280;5526;42.070;24.752;2023-09-19T20:57:33;99040.94;;;21.13;59.87
10948;BME280;5526;42.070;24.752;2023-09-19T21:00:01;99031.94;;;21.17;60.25
10948;BME280;5526;42.070;24.752;2023-09-19T21:02:29;99034.31;;;21.10;60.73
10948;BME280;5526;42.070;24.752;2023-09-19T21:04:56;99038.72;;;21.15;61.08
10948;BME280;5526;42.070;24.752;2023-09-19T21:07:24;99029.75;;;21.19;59.31
10948;BME280;5526;42.070;24.752;2023-09-19T21:09:54;99042.03;;;21.20;58.64
10948;BME280;5526;42.070;24.752;2023-09-19T21:12:21;99043.25;;;21.23;58.65
10948;BME280;5526;42.070;24.752;2023-09-19T21:14:48;99044.50;;;21.25;58.98
10948;BME280;5526;42.070;24.752;2023-09-19T21:17:18;99038.53;;;21.28;59.44
10948;BME280;5526;42.070;24.752;2023-09-19T21:19:45;99045.44;;;21.29;59.77
10948;BME280;5526;42.070;24.752;2023-09-19T21:22:13;99035.97;;;21.32;59.45
10948;BME280;5526;42.070;24.752;2023-09-19T21:24:42;99043.25;;;21.31;59.46
10948;BME280;5526;42.070;24.752;2023-09-19T21:27:09;99046.06;;;21.26;59.51
10948;BME280;5526;42.070;24.752;2023-09-19T21:29:39;99039.16;;;21.25;59.94
10948;BME280;5526;42.070;24.752;2023-09-19T21:32:06;99037.59;;;21.24;59.63
10948;BME280;5526;42.070;24.752;2023-09-19T21:34:33;99038.34;;;21.25;59.47
10948;BME280;5526;42.070;24.752;2023-09-19T21:37:01;99035.38;;;21.26;59.96
10948;BME280;5526;42.070;24.752;2023-09-19T21:39:28;99034.72;;;21.29;60.27
10948;BME280;5526;42.070;24.752;2023-09-19T21:41:56;99045.91;;;21.31;59.75
10948;BME280;5526;42.070;24.752;2023-09-19T21:44:23;99050.16;;;21.32;58.88
10948;BME280;5526;42.070;24.752;2023-09-19T21:46:50;99051.09;;;21.36;58.98
10948;BME280;5526;42.070;24.752;2023-09-19T21:49:19;99051.88;;;21.37;59.83
10948;BME280;5526;42.070;24.752;2023-09-19T21:51:46;99054.72;;;21.32;61.36
10948;BME280;5526;42.070;24.752;2023-09-19T21:54:13;99058.03;;;21.29;61.89
10948;BME280;5526;42.070;24.752;2023-09-19T21:56:40;99069.09;;;21.27;62.47
10948;BME280;5526;42.070;24.752;2023-09-19T21:59:08;99078.19;;;21.26;62.81
10948;BME280;5526;42.070;24.752;2023-09-19T22:01:35;99089.41;;;21.20;63.26
10948;BME280;5526;42.070;24.752;2023-09-19T22:04:05;99091.75;;;21.21;63.41
10948;BME280;5526;42.070;24.752;2023-09-19T22:06:35;99096.31;;;21.21;61.24
10948;BME280;5526;42.070;24.752;2023-09-19T22:09:02;99103.75;;;21.15;61.73
10948;BME280;5526;42.070;24.752;2023-09-19T22:11:30;99107.09;;;21.04;61.80
10948;BME280;5526;42.070;24.752;2023-09-19T22:13:57;99114.81;;;21.05;62.02
10948;BME280;5526;42.070;24.752;2023-09-19T22:16:26;99117.00;;;21.03;62.10
10948;BME280;5526;42.070;24.752;2023-09-19T22:18:53;99121.13;;;20.92;62.62
10948;BME280;5526;42.070;24.752;2023-09-19T22:21:20;99125.81;;;20.95;62.66
10948;BME280;5526;42.070;24.752;2023-09-19T22:23:52;99122.06;;;20.96;62.74
10948;BME280;5526;42.070;24.752;2023-09-19T22:26:20;99127.41;;;20.96;63.54
10948;BME280;5526;42.070;24.752;2023-09-19T22:28:49;99131.19;;;20.95;62.84
10948;BME280;5526;42.070;24.752;2023-09-19T22:31:18;99136.84;;;20.76;63.10
10948;BME280;5526;42.070;24.752;2023-09-19T22:33:49;99140.94;;;20.65;63.51
10948;BME280;5526;42.070;24.752;2023-09-19T22:36:17;99143.47;;;20.45;64.09
10948;BME280;5526;42.070;24.752;2023-09-19T22:38:48;99147.69;;;20.37;64.40
10948;BME280;5526;42.070;24.752;2023-09-19T22:41:16;99162.44;;;20.18;65.08
10948;BME280;5526;42.070;24.752;2023-09-19T22:43:44;99174.72;;;20.19;64.85
10948;BME280;5526;42.070;24.752;2023-09-19T22:46:14;99175.16;;;20.21;65.01
10948;BME280;5526;42.070;24.752;2023-09-19T22:48:43;99184.44;;;20.15;67.44
10948;BME280;5526;42.070;24.752;2023-09-19T22:51:13;99187.91;;;20.15;68.83
10948;BME280;5526;42.070;24.752;2023-09-19T22:53:48;99190.19;;;20.00;70.72
10948;BME280;5526;42.070;24.752;2023-09-19T22:56:17;99191.75;;;20.01;71.62
10948;BME280;5526;42.070;24.752;2023-09-19T22:58:47;99193.31;;;19.93;72.77
10948;BME280;5526;42.070;24.752;2023-09-19T23:01:16;99186.66;;;19.82;72.83
10948;BME280;5526;42.070;24.752;2023-09-19T23:03:53;99186.53;;;19.87;73.00
10948;BME280;5526;42.070;24.752;2023-09-19T23:06:43;99196.78;;;19.94;73.02
10948;BME280;5526;42.070;24.752;2023-09-19T23:09:13;99191.59;;;19.97;72.69
10948;BME280;5526;42.070;24.752;2023-09-19T23:11:47;99192.56;;;20.01;72.67
10948;BME280;5526;42.070;24.752;2023-09-19T23:14:15;99195.38;;;20.05;72.61
10948;BME280;5526;42.070;24.752;2023-09-19T23:16:43;99190.69;;;20.02;72.26
10948;BME280;5526;42.070;24.752;2023-09-19T23:19:18;99184.38;;;20.06;72.22
10948;BME280;5526;42.070;24.752;2023-09-19T23:21:55;99175.63;;;20.14;71.86
10948;BME280;5526;42.070;24.752;2023-09-19T23:24:30;99180.22;;;20.22;71.43
10948;BME280;5526;42.070;24.752;2023-09-19T23:27:00;99177.25;;;20.32;71.28
10948;BME280;5526;42.070;24.752;2023-09-19T23:29:33;99176.81;;;20.47;70.87
10948;BME280;5526;42.070;24.752;2023-09-19T23:32:01;99180.91;;;20.62;70.00
10948;BME280;5526;42.070;24.752;2023-09-19T23:34:28;99173.03;;;20.74;69.32
10948;BME280;5526;42.070;24.752;2023-09-19T23:36:57;99174.44;;;20.88;68.71
10948;BME280;5526;42.070;24.752;2023-09-19T23:39:24;99171.66;;;20.94;68.67
10948;BME280;5526;42.070;24.752;2023-09-19T23:41:51;99162.66;;;20.98;68.62
10948;BME280;5526;42.070;24.752;2023-09-19T23:44:19;99161.72;;;21.03;68.56
10948;BME280;5526;42.070;24.752;2023-09-19T23:46:46;99155.25;;;21.04;68.48
10948;BME280;5526;42.070;24.752;2023-09-19T23:49:20;99150.84;;;21.08;68.49
10948;BME280;5526;42.070;24.752;2023-09-19T23:51:47;99148.00;;;21.13;68.26
10948;BME280;5526;42.070;24.752;2023-09-19T23:54:16;99144.38;;;21.17;68.45
10948;BME280;5526;42.070;24.752;2023-09-19T23:56:51;99145.31;;;21.21;68.51
10948;BME280;5526;42.070;24.752;2023-09-19T23:59:18;99134.41;;;21.26;68.55
